createdAt,value
2022-10-22T00:01:07.079Z,93.77
2022-10-22T00:03:34.180Z,93.76
2022-10-22T00:06:00.861Z,94.11
2022-10-22T00:08:27.994Z,94.03
2022-10-22T00:10:54.746Z,94.48
2022-10-22T00:13:21.780Z,93.71
2022-10-22T00:15:48.720Z,93.68
2022-10-22T00:18:15.767Z,94.45
2022-10-22T00:20:43.434Z,93.48
2022-10-22T00:23:10.197Z,93.46
2022-10-22T00:25:36.900Z,93.73
2022-10-22T00:28:04.133Z,93.39
2022-10-22T00:30:30.938Z,93.74
2022-10-22T00:32:57.677Z,92.86
2022-10-22T00:35:24.553Z,92.94
2022-10-22T00:37:51.294Z,94.32
2022-10-22T00:40:17.998Z,94.00
2022-10-22T00:42:44.803Z,93.59
2022-10-22T00:45:11.458Z,94.44
2022-10-22T00:47:50.104Z,93.77
2022-10-22T00:50:35.535Z,94.33
2022-10-22T00:53:04.622Z,93.96
2022-10-22T00:55:32.911Z,93.98
2022-10-22T00:58:00.140Z,94.35
2022-10-22T01:00:27.564Z,92.61
2022-10-22T01:02:54.936Z,93.75
2022-10-22T01:05:21.671Z,93.62
2022-10-22T01:07:50.640Z,94.38
2022-10-22T01:10:36.187Z,94.81
2022-10-22T01:13:17.999Z,93.54
2022-10-22T01:15:47.656Z,94.21
2022-10-22T01:18:32.660Z,94.68
2022-10-22T01:21:12.292Z,94.77
2022-10-22T01:23:57.788Z,93.63
2022-10-22T01:26:39.360Z,94.14
2022-10-22T01:29:21.236Z,93.63
2022-10-22T01:32:05.829Z,94.02
2022-10-22T01:34:33.692Z,93.62
2022-10-22T01:37:00.800Z,93.89
2022-10-22T01:39:29.668Z,93.63
2022-10-22T01:41:57.139Z,94.04
2022-10-22T01:44:33.817Z,94.66
2022-10-22T01:47:12.679Z,94.63
2022-10-22T01:50:07.366Z,95.47
2022-10-22T01:52:48.951Z,95.04
2022-10-22T01:55:23.787Z,94.60
2022-10-22T01:58:10.226Z,93.19
2022-10-22T02:00:38.862Z,94.88
2022-10-22T02:03:17.422Z,94.87
2022-10-22T02:05:48.743Z,94.94
2022-10-22T02:08:27.694Z,94.24
2022-10-22T02:10:55.111Z,94.68
2022-10-22T02:13:25.292Z,94.32
2022-10-22T02:15:52.790Z,95.21
2022-10-22T02:18:24.705Z,94.32
2022-10-22T02:20:52.943Z,95.31
2022-10-22T02:23:21.019Z,94.78
2022-10-22T02:25:50.331Z,93.63
2022-10-22T02:28:34.104Z,94.07
2022-10-22T02:31:14.447Z,94.06
2022-10-22T02:33:48.154Z,94.05
2022-10-22T02:36:16.768Z,94.60
2022-10-22T02:38:43.711Z,93.96
2022-10-22T02:41:10.630Z,94.13
2022-10-22T02:43:45.145Z,94.20
2022-10-22T02:46:11.976Z,94.46
2022-10-22T02:48:38.808Z,93.60
2022-10-22T02:51:05.674Z,94.75
2022-10-22T02:53:33.129Z,94.31
2022-10-22T02:56:00.499Z,94.13
2022-10-22T02:58:27.680Z,94.58
2022-10-22T03:00:54.565Z,93.40
2022-10-22T03:03:21.858Z,94.44
2022-10-22T03:05:50.643Z,94.45
2022-10-22T03:08:17.788Z,93.46
2022-10-22T03:10:44.654Z,93.70
2022-10-22T03:13:11.397Z,93.92
2022-10-22T03:15:38.193Z,93.77
2022-10-22T03:18:04.942Z,94.20
2022-10-22T03:20:31.690Z,94.34
2022-10-22T03:22:58.642Z,94.35
2022-10-22T03:25:27.298Z,94.33
2022-10-22T03:27:56.408Z,95.18
2022-10-22T03:30:23.116Z,94.56
2022-10-22T03:32:49.787Z,93.92
2022-10-22T03:35:16.704Z,94.21
2022-10-22T03:37:43.570Z,94.37
2022-10-22T03:40:11.631Z,93.86
2022-10-22T03:42:38.735Z,93.48
2022-10-22T03:45:06.285Z,92.68
2022-10-22T03:47:33.035Z,94.12
2022-10-22T03:49:59.878Z,93.96
2022-10-22T03:52:26.569Z,93.45
2022-10-22T03:54:53.358Z,92.66
2022-10-22T03:57:20.104Z,93.55
2022-10-22T03:59:47.242Z,93.59
2022-10-22T04:02:14.685Z,93.71
2022-10-22T04:04:41.628Z,92.77
2022-10-22T04:07:08.849Z,93.59
2022-10-22T04:09:35.793Z,93.57
2022-10-22T04:12:02.547Z,94.10
2022-10-22T04:14:29.319Z,93.89
2022-10-22T04:16:56.051Z,94.42
2022-10-22T04:19:22.824Z,93.87
2022-10-22T04:21:49.592Z,94.16
2022-10-22T04:24:16.593Z,93.40
2022-10-22T04:26:43.351Z,94.27
2022-10-22T04:29:13.441Z,94.34
2022-10-22T04:31:43.144Z,93.87
2022-10-22T04:34:09.903Z,94.64
2022-10-22T04:36:36.626Z,93.94
2022-10-22T04:39:04.475Z,93.61
2022-10-22T04:41:33.893Z,93.20
2022-10-22T04:44:00.889Z,93.58
2022-10-22T04:46:30.105Z,94.08
2022-10-22T04:48:56.782Z,93.27
2022-10-22T04:51:25.078Z,93.35
2022-10-22T04:53:52.293Z,94.04
2022-10-22T04:56:21.514Z,95.12
2022-10-22T04:58:49.819Z,93.40
2022-10-22T05:01:18.764Z,93.45
2022-10-22T05:03:46.478Z,93.96
2022-10-22T05:06:14.274Z,93.88
2022-10-22T05:08:41.882Z,93.45
2022-10-22T05:11:12.444Z,93.93
2022-10-22T05:13:39.197Z,93.45
2022-10-22T05:16:06.179Z,93.43
2022-10-22T05:18:37.682Z,93.83
2022-10-22T05:21:07.852Z,93.50
2022-10-22T05:23:34.643Z,93.76
2022-10-22T05:26:08.705Z,92.89
2022-10-22T05:28:36.035Z,92.74
2022-10-22T05:31:04.110Z,93.42
2022-10-22T05:33:32.457Z,93.91
2022-10-22T05:35:59.321Z,94.10
2022-10-22T05:38:26.505Z,93.42
2022-10-22T05:41:06.500Z,94.27
2022-10-22T05:43:33.856Z,93.41
2022-10-22T05:46:08.756Z,94.26
2022-10-22T05:48:35.636Z,94.73
2022-10-22T05:51:07.319Z,94.01
2022-10-22T05:53:34.983Z,93.89
2022-10-22T05:56:03.056Z,94.45
2022-10-22T05:58:30.162Z,94.85
2022-10-22T06:01:04.918Z,94.17
2022-10-22T06:03:32.255Z,94.78
2022-10-22T06:06:05.109Z,94.53
2022-10-22T06:08:31.963Z,94.17
2022-10-22T06:10:58.779Z,94.89
2022-10-22T06:13:25.635Z,94.44
2022-10-22T06:15:53.568Z,94.67
2022-10-22T06:18:20.675Z,95.35
2022-10-22T06:20:47.739Z,95.11
2022-10-22T06:23:15.375Z,95.49
2022-10-22T06:25:43.570Z,95.99
2022-10-22T06:28:10.783Z,95.42
2022-10-22T06:30:41.802Z,95.24
2022-10-22T06:33:11.149Z,95.21
2022-10-22T06:35:37.852Z,95.42
2022-10-22T06:38:04.632Z,95.37
2022-10-22T06:40:31.367Z,95.07
2022-10-22T06:42:59.763Z,94.40
2022-10-22T06:45:26.674Z,95.22
2022-10-22T06:47:53.827Z,96.21
2022-10-22T06:50:20.532Z,95.83
2022-10-22T06:52:47.459Z,96.18
2022-10-22T06:55:14.222Z,95.38
2022-10-22T06:57:41.366Z,95.21
2022-10-22T07:00:09.153Z,95.00
2022-10-22T07:02:35.947Z,95.42
2022-10-22T07:05:02.742Z,94.16
2022-10-22T07:07:29.521Z,94.09
2022-10-22T07:09:56.788Z,94.66
2022-10-22T07:12:23.560Z,95.17
2022-10-22T07:14:50.315Z,94.17
2022-10-22T07:17:17.151Z,94.99
2022-10-22T07:19:45.298Z,95.20
2022-10-22T07:22:13.926Z,95.33
2022-10-22T07:24:40.630Z,95.63
2022-10-22T07:27:09.499Z,94.77
2022-10-22T07:29:38.546Z,95.28
2022-10-22T07:32:05.374Z,94.45
2022-10-22T07:34:32.192Z,95.46
2022-10-22T07:36:59.389Z,95.46
2022-10-22T07:39:26.212Z,96.00
2022-10-22T07:41:54.841Z,96.00
2022-10-22T07:44:21.628Z,96.68
2022-10-22T07:46:49.088Z,95.48
2022-10-22T07:49:15.971Z,96.01
2022-10-22T07:51:42.675Z,96.50
2022-10-22T07:54:09.477Z,96.75
2022-10-22T07:56:36.221Z,96.06
2022-10-22T07:59:03.071Z,96.21
2022-10-22T08:01:29.878Z,96.52
2022-10-22T08:03:56.652Z,96.67
2022-10-22T08:06:23.420Z,96.72
2022-10-22T08:08:50.438Z,95.82
2022-10-22T08:11:17.228Z,96.30
2022-10-22T08:13:45.662Z,95.83
2022-10-22T08:16:13.002Z,95.82
2022-10-22T08:18:39.908Z,96.61
2022-10-22T08:21:06.954Z,96.52
2022-10-22T08:23:34.462Z,96.76
2022-10-22T08:26:02.985Z,96.46
2022-10-22T08:28:31.254Z,95.82
2022-10-22T08:30:58.084Z,95.95
2022-10-22T08:33:24.998Z,96.00
2022-10-22T08:35:52.456Z,95.98
2022-10-22T08:38:20.167Z,96.22
2022-10-22T08:40:57.326Z,96.61
2022-10-22T08:43:45.390Z,95.66
2022-10-22T08:46:15.116Z,95.35
2022-10-22T08:48:46.379Z,94.93
2022-10-22T08:51:17.636Z,95.06
2022-10-22T08:54:10.677Z,94.62
2022-10-22T08:56:38.355Z,94.69
2022-10-22T08:59:30.580Z,94.60
2022-10-22T09:01:57.472Z,94.41
2022-10-22T09:04:38.197Z,94.69
2022-10-22T09:07:04.996Z,94.10
2022-10-22T09:09:40.123Z,94.69
2022-10-22T09:12:07.444Z,94.26
2022-10-22T09:14:34.254Z,94.10
2022-10-22T09:17:33.969Z,95.01
2022-10-22T09:20:28.613Z,94.02
2022-10-22T09:23:01.677Z,94.15
2022-10-22T09:25:31.421Z,94.12
2022-10-22T09:27:59.075Z,94.96
2022-10-22T09:30:29.796Z,94.32
2022-10-22T09:33:06.939Z,93.99
2022-10-22T09:35:38.914Z,93.98
2022-10-22T09:38:08.874Z,93.79
2022-10-22T09:40:53.205Z,93.90
2022-10-22T09:43:20.307Z,94.44
2022-10-22T09:45:48.532Z,94.09
2022-10-22T09:48:18.939Z,93.13
2022-10-22T09:50:48.051Z,93.11
2022-10-22T09:53:19.321Z,93.78
2022-10-22T09:55:52.730Z,93.42
2022-10-22T09:58:20.189Z,93.54
2022-10-22T10:00:54.745Z,94.08
2022-10-22T10:03:31.848Z,93.55
2022-10-22T10:06:04.707Z,93.85
2022-10-22T10:08:33.336Z,93.92
2022-10-22T10:11:05.828Z,93.00
2022-10-22T10:13:43.754Z,92.73
2022-10-22T10:16:27.507Z,93.39
2022-10-22T10:18:54.476Z,92.17
2022-10-22T10:21:54.367Z,92.76
2022-10-22T10:24:33.132Z,93.34
2022-10-22T10:27:10.482Z,93.21
2022-10-22T10:29:44.925Z,92.33
2022-10-22T10:32:23.730Z,92.16
2022-10-22T10:35:09.359Z,91.74
2022-10-22T10:37:46.621Z,91.94
2022-10-22T10:40:19.991Z,91.22
2022-10-22T10:43:41.512Z,91.32
2022-10-22T10:46:19.995Z,90.92
2022-10-22T10:49:11.219Z,89.93
2022-10-22T10:51:55.156Z,90.05
2022-10-22T10:54:47.024Z,89.58
2022-10-22T10:57:13.762Z,89.83
2022-10-22T11:00:00.493Z,89.54
2022-10-22T11:03:04.768Z,89.14
2022-10-22T11:05:39.463Z,87.94
2022-10-22T11:08:09.150Z,88.99
2022-10-22T11:10:50.829Z,87.87
2022-10-22T11:13:37.216Z,88.93
2022-10-22T11:16:12.365Z,87.67
2022-10-22T11:18:44.112Z,87.50
2022-10-22T11:21:27.665Z,87.06
2022-10-22T11:24:20.040Z,88.73
2022-10-22T11:27:07.333Z,88.15
2022-10-22T11:29:39.488Z,88.02
2022-10-22T11:32:12.934Z,88.70
2022-10-22T11:34:47.339Z,87.30
2022-10-22T11:37:14.883Z,86.52
2022-10-22T11:39:45.930Z,87.86
2022-10-22T11:42:19.712Z,87.72
2022-10-22T11:45:15.234Z,88.57
2022-10-22T11:48:10.472Z,88.62
2022-10-22T11:50:53.039Z,89.88
2022-10-22T11:53:26.057Z,88.71
2022-10-22T11:55:55.606Z,88.10
2022-10-22T11:58:28.288Z,88.14
2022-10-22T12:01:07.315Z,87.97
2022-10-22T12:03:34.769Z,89.13
2022-10-22T12:06:15.012Z,87.95
2022-10-22T12:08:48.965Z,88.87
2022-10-22T12:11:27.638Z,88.07
2022-10-22T12:14:12.996Z,87.73
2022-10-22T12:16:56.211Z,87.77
2022-10-22T12:19:25.878Z,86.25
2022-10-22T12:21:55.121Z,86.19
2022-10-22T12:24:24.379Z,85.74
2022-10-22T12:26:52.777Z,85.54
2022-10-22T12:29:26.547Z,85.63
2022-10-22T12:31:54.242Z,83.81
2022-10-22T12:34:25.005Z,85.23
2022-10-22T12:36:53.620Z,84.56
2022-10-22T12:39:24.168Z,85.95
2022-10-22T12:41:53.109Z,84.79
2022-10-22T12:44:20.588Z,84.58
2022-10-22T12:46:51.738Z,84.48
2022-10-22T12:49:23.475Z,84.46
2022-10-22T12:51:50.303Z,83.81
2022-10-22T12:54:27.619Z,83.78
2022-10-22T12:56:56.082Z,83.31
2022-10-22T12:59:26.108Z,83.71
2022-10-22T13:01:53.917Z,84.18
2022-10-22T13:04:26.766Z,84.94
2022-10-22T13:07:06.410Z,85.54
2022-10-22T13:09:39.373Z,84.25
2022-10-22T13:12:07.990Z,84.74
2022-10-22T13:14:38.989Z,84.15
2022-10-22T13:17:10.341Z,84.22
2022-10-22T13:19:49.162Z,84.41
2022-10-22T13:22:30.499Z,83.98
2022-10-22T13:24:59.978Z,83.71
2022-10-22T13:27:28.350Z,84.34
2022-10-22T13:29:56.427Z,83.82
2022-10-22T13:32:33.922Z,84.88
2022-10-22T13:35:04.431Z,82.11
2022-10-22T13:37:32.911Z,78.57
2022-10-22T13:39:59.839Z,78.63
2022-10-22T13:42:26.647Z,75.94
2022-10-22T13:44:53.390Z,75.55
2022-10-22T13:47:29.812Z,78.18
2022-10-22T13:49:58.874Z,76.69
2022-10-22T13:52:33.060Z,75.69
2022-10-22T13:54:59.971Z,75.11
2022-10-22T13:57:26.683Z,76.86
2022-10-22T13:59:53.627Z,72.57
2022-10-22T14:02:22.403Z,74.42
2022-10-22T14:04:49.654Z,73.38
2022-10-22T14:07:17.023Z,73.03
2022-10-22T14:09:43.843Z,74.30
2022-10-22T14:12:13.167Z,73.73
2022-10-22T14:14:40.146Z,74.41
2022-10-22T14:17:11.106Z,76.16
2022-10-22T14:19:37.971Z,76.39
2022-10-22T14:22:05.216Z,77.89
2022-10-22T14:24:31.953Z,76.36
2022-10-22T14:26:58.623Z,78.20
2022-10-22T14:29:25.439Z,77.56
2022-10-22T14:31:52.132Z,79.14
2022-10-22T14:34:18.878Z,77.66
2022-10-22T14:36:58.669Z,79.85
2022-10-22T14:39:25.504Z,79.40
2022-10-22T14:41:52.213Z,80.45
2022-10-22T14:44:18.963Z,79.94
2022-10-22T14:46:47.027Z,81.02
2022-10-22T14:49:13.972Z,80.33
2022-10-22T14:51:40.838Z,80.67
2022-10-22T14:54:07.626Z,78.96
2022-10-22T14:56:34.498Z,78.98
2022-10-22T14:59:01.379Z,77.56
2022-10-22T15:01:28.315Z,78.55
2022-10-22T15:03:55.059Z,78.94
2022-10-22T15:06:21.829Z,80.10
2022-10-22T15:08:48.686Z,79.70
2022-10-22T15:11:15.617Z,79.87
2022-10-22T15:13:42.433Z,79.65
2022-10-22T15:16:10.790Z,80.16
2022-10-22T15:18:37.758Z,82.37
2022-10-22T15:21:13.405Z,82.32
2022-10-22T15:23:40.723Z,81.40
2022-10-22T15:26:09.066Z,81.99
2022-10-22T15:28:37.663Z,82.35
2022-10-22T15:31:04.926Z,83.18
2022-10-22T15:33:31.736Z,83.07
2022-10-22T15:35:59.201Z,84.09
2022-10-22T15:41:04.405Z,84.42
2022-10-22T15:43:33.172Z,84.53
2022-10-22T15:46:13.296Z,85.37
2022-10-22T15:48:40.626Z,85.31
2022-10-22T15:51:25.795Z,86.22
2022-10-22T15:53:57.963Z,86.34
2022-10-22T15:56:26.721Z,86.52
2022-10-22T15:58:55.219Z,87.42
2022-10-22T16:01:22.386Z,86.42
2022-10-22T16:03:52.667Z,86.85
2022-10-22T16:06:19.665Z,86.08
2022-10-22T16:11:35.108Z,85.80
2022-10-22T16:14:02.068Z,86.70
2022-10-22T16:16:32.150Z,86.54
2022-10-22T16:18:58.927Z,86.18
2022-10-22T16:21:26.287Z,86.11
2022-10-22T16:23:53.887Z,86.80
2022-10-22T16:26:21.310Z,87.17
2022-10-22T16:28:49.555Z,87.61
2022-10-22T16:31:17.812Z,87.02
2022-10-22T16:33:47.921Z,86.80
2022-10-22T16:36:19.173Z,88.27
2022-10-22T16:38:47.215Z,88.37
2022-10-22T16:41:24.644Z,89.09
2022-10-22T16:43:55.022Z,89.44
2022-10-22T16:46:22.841Z,89.68
2022-10-22T16:48:52.004Z,90.15
2022-10-22T16:51:21.572Z,90.05
2022-10-22T16:53:48.455Z,90.33
2022-10-22T16:56:16.669Z,90.77
2022-10-22T16:58:48.323Z,90.73
2022-10-22T17:01:19.668Z,91.40
2022-10-22T17:03:46.666Z,91.27
2022-10-22T17:06:13.578Z,91.17
2022-10-22T17:08:41.096Z,90.23
2022-10-22T17:11:12.839Z,90.93
2022-10-22T17:13:42.845Z,90.92
2022-10-22T17:16:12.279Z,91.11
2022-10-22T17:18:40.351Z,90.51
2022-10-22T17:21:08.699Z,90.64
2022-10-22T17:23:35.522Z,90.47
2022-10-22T17:26:08.003Z,91.12
2022-10-22T17:28:38.733Z,90.98
2022-10-22T17:31:29.873Z,91.28
2022-10-22T17:33:57.096Z,90.99
2022-10-22T17:36:24.712Z,91.63
2022-10-22T17:38:54.041Z,91.50
2022-10-22T17:41:23.329Z,90.89
2022-10-22T17:43:50.629Z,91.54
2022-10-22T17:46:22.796Z,91.14
2022-10-22T17:48:54.104Z,91.16
2022-10-22T17:51:21.749Z,90.82
2022-10-22T17:53:50.696Z,91.32
2022-10-22T17:56:22.591Z,91.23
2022-10-22T17:58:49.950Z,91.68
2022-10-22T18:01:28.544Z,91.52
2022-10-22T18:03:59.752Z,91.08
2022-10-22T18:06:26.660Z,91.26
2022-10-22T18:11:26.543Z,90.41
2022-10-22T18:13:56.270Z,89.24
2022-10-22T18:16:23.707Z,88.74
2022-10-22T18:18:53.379Z,89.89
2022-10-22T18:21:21.451Z,90.07
2022-10-22T18:23:48.193Z,89.79
2022-10-22T18:26:15.620Z,90.65
2022-10-22T18:28:42.387Z,90.58
2022-10-22T18:31:11.603Z,90.26
2022-10-22T18:33:39.549Z,91.80
2022-10-22T18:36:08.971Z,91.77
2022-10-22T18:38:38.181Z,91.20
2022-10-22T18:41:09.666Z,90.29
2022-10-22T18:43:37.062Z,91.15
2022-10-22T18:46:07.015Z,91.36
2022-10-22T18:48:35.252Z,90.82
2022-10-22T18:51:07.850Z,91.06
2022-10-22T18:53:37.964Z,90.53
2022-10-22T18:56:06.869Z,90.79
2022-10-22T18:58:41.644Z,90.14
2022-10-22T19:01:10.998Z,90.63
2022-10-22T19:03:37.774Z,90.51
2022-10-22T19:06:04.751Z,90.85
2022-10-22T19:08:32.166Z,90.48
2022-10-22T19:10:58.935Z,90.78
2022-10-22T19:13:25.845Z,91.66
2022-10-22T19:15:52.944Z,91.93
2022-10-22T19:18:19.732Z,91.84
2022-10-22T19:20:48.747Z,92.17
2022-10-22T19:23:19.908Z,91.32
2022-10-22T19:25:47.622Z,90.99
2022-10-22T19:28:14.364Z,90.48
2022-10-22T19:30:44.176Z,89.46
2022-10-22T19:33:11.049Z,89.13
2022-10-22T19:35:37.787Z,88.64
2022-10-22T19:38:04.503Z,89.10
2022-10-22T19:40:31.327Z,89.41
2022-10-22T19:42:58.082Z,90.02
2022-10-22T19:45:24.780Z,90.64
2022-10-22T19:47:51.559Z,90.00
2022-10-22T19:50:18.467Z,90.12
2022-10-22T19:52:45.199Z,89.94
2022-10-22T19:55:12.054Z,89.45
2022-10-22T19:57:38.952Z,89.37
2022-10-22T20:00:06.398Z,89.91
2022-10-22T20:02:36.821Z,89.82
2022-10-22T20:05:04.010Z,89.71
2022-10-22T20:07:30.790Z,89.72
2022-10-22T20:09:57.568Z,89.55
2022-10-22T20:12:24.354Z,90.07
2022-10-22T20:14:51.610Z,89.99
2022-10-22T20:17:18.868Z,90.79
2022-10-22T20:19:45.881Z,89.52
2022-10-22T20:22:14.968Z,88.86
2022-10-22T20:24:44.898Z,89.24
2022-10-22T20:27:13.549Z,88.72
2022-10-22T20:29:40.347Z,89.14
2022-10-22T20:32:08.806Z,88.96
2022-10-22T20:34:35.989Z,90.42
2022-10-22T20:37:02.745Z,89.54
2022-10-22T20:39:29.650Z,90.65
2022-10-22T20:41:56.389Z,89.66
2022-10-22T20:44:23.220Z,90.40
2022-10-22T20:46:51.432Z,90.64
2022-10-22T20:49:18.539Z,90.82
2022-10-22T20:51:45.539Z,89.00
2022-10-22T20:54:14.041Z,89.27
2022-10-22T20:56:41.249Z,88.80
2022-10-22T20:59:10.855Z,88.88
2022-10-22T21:01:40.374Z,90.32
2022-10-22T21:04:07.823Z,89.72
2022-10-22T21:06:37.951Z,90.09
2022-10-22T21:09:06.721Z,89.06
2022-10-22T21:11:33.493Z,89.43
2022-10-22T21:14:00.524Z,89.44
2022-10-22T21:16:27.858Z,89.57
2022-10-22T21:18:54.801Z,89.23
2022-10-22T21:21:21.656Z,89.59
2022-10-22T21:23:50.310Z,90.34
2022-10-22T21:26:18.693Z,89.80
2022-10-22T21:28:46.057Z,89.78
2022-10-22T21:31:22.153Z,90.46
2022-10-22T21:33:50.348Z,89.85
2022-10-22T21:36:21.619Z,89.63
2022-10-22T21:38:50.787Z,90.55
2022-10-22T21:41:19.488Z,90.52
2022-10-22T21:43:46.612Z,90.12
2022-10-22T21:46:16.398Z,90.52
2022-10-22T21:48:43.630Z,90.69
2022-10-22T21:51:15.911Z,89.43
2022-10-22T21:53:43.503Z,89.34
2022-10-22T21:56:15.727Z,90.21
2022-10-22T21:58:42.677Z,89.20
2022-10-22T22:01:09.598Z,89.60
2022-10-22T22:03:36.462Z,89.81
2022-10-22T22:06:06.760Z,89.88
2022-10-22T22:08:34.257Z,89.16
2022-10-22T22:11:06.926Z,89.64
2022-10-22T22:13:33.897Z,89.62
2022-10-22T22:16:06.244Z,89.39
2022-10-22T22:18:34.056Z,89.61
2022-10-22T22:21:07.810Z,89.07
2022-10-22T22:23:37.626Z,89.16
2022-10-22T22:26:05.131Z,89.55
2022-10-22T22:28:32.808Z,88.96
2022-10-22T22:30:59.757Z,89.29
2022-10-22T22:33:27.250Z,90.44
2022-10-22T22:35:58.424Z,89.40
2022-10-22T22:38:25.351Z,89.32
2022-10-22T22:40:52.185Z,89.47
2022-10-22T22:43:19.092Z,88.86
2022-10-22T22:45:45.772Z,88.82
2022-10-22T22:48:12.579Z,88.79
2022-10-22T22:50:39.323Z,88.14
2022-10-22T22:53:06.147Z,88.01
2022-10-22T22:55:32.879Z,88.01
2022-10-22T22:57:59.813Z,88.17
2022-10-22T23:00:26.674Z,88.54
2022-10-22T23:02:56.689Z,89.12
2022-10-22T23:05:23.379Z,90.35
2022-10-22T23:07:51.459Z,90.06
2022-10-22T23:10:18.802Z,89.96
2022-10-22T23:12:45.911Z,90.48
2022-10-22T23:15:12.803Z,90.65
2022-10-22T23:17:39.634Z,90.19
2022-10-22T23:20:07.541Z,91.04
2022-10-22T23:22:34.345Z,90.55
2022-10-22T23:25:01.223Z,88.70
2022-10-22T23:27:28.002Z,88.20
2022-10-22T23:29:54.753Z,87.70
2022-10-22T23:32:21.569Z,87.62
2022-10-22T23:34:48.352Z,88.44
2022-10-22T23:37:15.108Z,87.94
2022-10-22T23:39:41.881Z,87.43
2022-10-22T23:42:08.731Z,86.86
2022-10-22T23:44:35.656Z,86.68
2022-10-22T23:47:02.398Z,87.67
2022-10-22T23:49:29.117Z,87.78
2022-10-22T23:51:55.893Z,87.85
2022-10-22T23:54:22.618Z,87.81
2022-10-22T23:56:49.394Z,87.66
2022-10-22T23:59:16.485Z,87.75
